sensor_id;sensor_type;location;lat;lon;timestamp;P1;durP1;ratioP1;P2;durP2;ratioP2
70780;SDS011;72716;48.814;2.126;2023-09-18T00:01:30;7.03;;;4.97;;
70780;SDS011;72716;48.814;2.126;2023-09-18T00:03:55;6.15;;;3.95;;
70780;SDS011;72716;48.814;2.126;2023-09-18T00:06:20;8.05;;;4.32;;
70780;SDS011;72716;48.814;2.126;2023-09-18T00:08:48;7.90;;;4.65;;
70780;SDS011;72716;48.814;2.126;2023-09-18T00:11:15;8.43;;;5.38;;
70780;SDS011;72716;48.814;2.126;2023-09-18T00:13:40;8.18;;;6.70;;
70780;SDS011;72716;48.814;2.126;2023-09-18T00:16:06;8.27;;;6.55;;
70780;SDS011;72716;48.814;2.126;2023-09-18T00:18:31;9.70;;;5.57;;
70780;SDS011;72716;48.814;2.126;2023-09-18T00:20:57;11.18;;;6.28;;
70780;SDS011;72716;48.814;2.126;2023-09-18T00:23:23;7.97;;;6.20;;
70780;SDS011;72716;48.814;2.126;2023-09-18T00:25:48;8.70;;;5.72;;
70780;SDS011;72716;48.814;2.126;2023-09-18T00:28:14;7.43;;;5.35;;
70780;SDS011;72716;48.814;2.126;2023-09-18T00:30:42;9.30;;;5.07;;
70780;SDS011;72716;48.814;2.126;2023-09-18T00:33:11;6.25;;;5.43;;
70780;SDS011;72716;48.814;2.126;2023-09-18T00:35:36;8.27;;;4.50;;
70780;SDS011;72716;48.814;2.126;2023-09-18T00:38:02;6.80;;;4.32;;
70780;SDS011;72716;48.814;2.126;2023-09-18T00:40:29;6.80;;;4.40;;
70780;SDS011;72716;48.814;2.126;2023-09-18T00:42:54;6.32;;;3.95;;
70780;SDS011;72716;48.814;2.126;2023-09-18T00:45:20;6.13;;;3.90;;
70780;SDS011;72716;48.814;2.126;2023-09-18T00:47:45;6.80;;;4.00;;
70780;SDS011;72716;48.814;2.126;2023-09-18T00:50:11;4.63;;;4.05;;
70780;SDS011;72716;48.814;2.126;2023-09-18T00:52:39;6.05;;;4.22;;
70780;SDS011;72716;48.814;2.126;2023-09-18T00:55:06;3.90;;;2.85;;
70780;SDS011;72716;48.814;2.126;2023-09-18T00:57:32;8.85;;;3.35;;
70780;SDS011;72716;48.814;2.126;2023-09-18T00:59:57;4.75;;;3.42;;
70780;SDS011;72716;48.814;2.126;2023-09-18T01:02:23;5.25;;;3.15;;
70780;SDS011;72716;48.814;2.126;2023-09-18T01:04:49;4.97;;;3.38;;
70780;SDS011;72716;48.814;2.126;2023-09-18T01:07:14;3.45;;;3.10;;
70780;SDS011;72716;48.814;2.126;2023-09-18T01:09:40;4.78;;;3.33;;
70780;SDS011;72716;48.814;2.126;2023-09-18T01:14:57;4.65;;;3.75;;
70780;SDS011;72716;48.814;2.126;2023-09-18T01:17:36;8.90;;;3.90;;
70780;SDS011;72716;48.814;2.126;2023-09-18T01:20:03;7.15;;;3.22;;
70780;SDS011;72716;48.814;2.126;2023-09-18T01:22:30;3.97;;;2.97;;
70780;SDS011;72716;48.814;2.126;2023-09-18T01:24:57;4.93;;;3.55;;
70780;SDS011;72716;48.814;2.126;2023-09-18T01:27:22;6.32;;;3.70;;
70780;SDS011;72716;48.814;2.126;2023-09-18T01:29:48;4.50;;;3.00;;
70780;SDS011;72716;48.814;2.126;2023-09-18T01:32:14;3.90;;;3.10;;
70780;SDS011;72716;48.814;2.126;2023-09-18T01:34:41;6.50;;;3.78;;
70780;SDS011;72716;48.814;2.126;2023-09-18T01:37:10;5.18;;;3.33;;
70780;SDS011;72716;48.814;2.126;2023-09-18T01:39:36;6.05;;;3.17;;
70780;SDS011;72716;48.814;2.126;2023-09-18T01:42:04;4.63;;;2.90;;
70780;SDS011;72716;48.814;2.126;2023-09-18T01:44:31;3.97;;;3.00;;
70780;SDS011;72716;48.814;2.126;2023-09-18T01:47:08;5.40;;;2.90;;
70780;SDS011;72716;48.814;2.126;2023-09-18T01:49:37;4.30;;;2.60;;
70780;SDS011;72716;48.814;2.126;2023-09-18T01:52:04;3.70;;;2.80;;
70780;SDS011;72716;48.814;2.126;2023-09-18T01:54:30;3.47;;;2.92;;
70780;SDS011;72716;48.814;2.126;2023-09-18T01:56:57;3.35;;;3.00;;
70780;SDS011;72716;48.814;2.126;2023-09-18T01:59:22;3.55;;;2.63;;
70780;SDS011;72716;48.814;2.126;2023-09-18T02:01:48;5.60;;;2.72;;
70780;SDS011;72716;48.814;2.126;2023-09-18T02:04:14;4.82;;;2.70;;
70780;SDS011;72716;48.814;2.126;2023-09-18T02:06:39;3.75;;;2.80;;
70780;SDS011;72716;48.814;2.126;2023-09-18T02:09:05;4.05;;;2.80;;
70780;SDS011;72716;48.814;2.126;2023-09-18T02:11:37;4.60;;;3.08;;
70780;SDS011;72716;48.814;2.126;2023-09-18T02:14:04;5.53;;;3.03;;
70780;SDS011;72716;48.814;2.126;2023-09-18T02:16:32;4.50;;;3.30;;
70780;SDS011;72716;48.814;2.126;2023-09-18T02:18:58;5.93;;;3.45;;
70780;SDS011;72716;48.814;2.126;2023-09-18T02:21:23;7.90;;;4.30;;
70780;SDS011;72716;48.814;2.126;2023-09-18T02:23:51;6.20;;;3.80;;
70780;SDS011;72716;48.814;2.126;2023-09-18T02:26:18;5.88;;;4.20;;
70780;SDS011;72716;48.814;2.126;2023-09-18T02:28:44;7.43;;;4.53;;
70780;SDS011;72716;48.814;2.126;2023-09-18T02:31:09;7.07;;;4.40;;
70780;SDS011;72716;48.814;2.126;2023-09-18T02:33:35;6.95;;;4.40;;
70780;SDS011;72716;48.814;2.126;2023-09-18T02:36:01;6.72;;;4.40;;
70780;SDS011;72716;48.814;2.126;2023-09-18T02:38:27;6.32;;;4.00;;
70780;SDS011;72716;48.814;2.126;2023-09-18T02:40:54;5.78;;;4.18;;
70780;SDS011;72716;48.814;2.126;2023-09-18T02:43:21;6.38;;;4.45;;
70780;SDS011;72716;48.814;2.126;2023-09-18T02:45:47;8.27;;;4.32;;
70780;SDS011;72716;48.814;2.126;2023-09-18T02:48:12;4.22;;;3.65;;
70780;SDS011;72716;48.814;2.126;2023-09-18T02:50:38;5.68;;;3.72;;
70780;SDS011;72716;48.814;2.126;2023-09-18T02:53:05;4.68;;;4.05;;
70780;SDS011;72716;48.814;2.126;2023-09-18T02:55:31;5.28;;;3.92;;
70780;SDS011;72716;48.814;2.126;2023-09-18T02:57:57;5.53;;;3.88;;
70780;SDS011;72716;48.814;2.126;2023-09-18T03:00:22;4.60;;;3.72;;
70780;SDS011;72716;48.814;2.126;2023-09-18T03:02:47;7.53;;;3.83;;
70780;SDS011;72716;48.814;2.126;2023-09-18T03:05:13;4.68;;;3.55;;
70780;SDS011;72716;48.814;2.126;2023-09-18T03:07:38;4.80;;;3.20;;
70780;SDS011;72716;48.814;2.126;2023-09-18T03:10:03;6.47;;;4.18;;
70780;SDS011;72716;48.814;2.126;2023-09-18T03:12:30;5.47;;;3.55;;
70780;SDS011;72716;48.814;2.126;2023-09-18T03:14:55;4.93;;;3.35;;
70780;SDS011;72716;48.814;2.126;2023-09-18T03:17:21;4.32;;;3.47;;
70780;SDS011;72716;48.814;2.126;2023-09-18T03:19:49;6.30;;;3.55;;
70780;SDS011;72716;48.814;2.126;2023-09-18T03:22:14;4.50;;;3.25;;
70780;SDS011;72716;48.814;2.126;2023-09-18T03:24:40;4.53;;;3.45;;
70780;SDS011;72716;48.814;2.126;2023-09-18T03:27:05;5.05;;;3.33;;
70780;SDS011;72716;48.814;2.126;2023-09-18T03:29:30;3.38;;;3.08;;
70780;SDS011;72716;48.814;2.126;2023-09-18T03:31:56;4.55;;;3.35;;
70780;SDS011;72716;48.814;2.126;2023-09-18T03:34:23;5.35;;;3.85;;
70780;SDS011;72716;48.814;2.126;2023-09-18T03:36:51;4.63;;;3.47;;
70780;SDS011;72716;48.814;2.126;2023-09-18T03:39:16;3.70;;;3.28;;
70780;SDS011;72716;48.814;2.126;2023-09-18T03:41:41;4.30;;;3.30;;
70780;SDS011;72716;48.814;2.126;2023-09-18T03:44:07;3.75;;;2.92;;
70780;SDS011;72716;48.814;2.126;2023-09-18T03:46:32;4.80;;;3.63;;
70780;SDS011;72716;48.814;2.126;2023-09-18T03:48:58;3.60;;;2.97;;
70780;SDS011;72716;48.814;2.126;2023-09-18T03:51:23;7.18;;;3.70;;
70780;SDS011;72716;48.814;2.126;2023-09-18T03:53:48;5.95;;;3.53;;
70780;SDS011;72716;48.814;2.126;2023-09-18T03:56:14;4.90;;;3.40;;
70780;SDS011;72716;48.814;2.126;2023-09-18T03:58:39;5.22;;;3.30;;
70780;SDS011;72716;48.814;2.126;2023-09-18T04:01:04;4.18;;;3.30;;
70780;SDS011;72716;48.814;2.126;2023-09-18T04:03:30;4.93;;;3.38;;
70780;SDS011;72716;48.814;2.126;2023-09-18T04:05:55;3.15;;;2.70;;
70780;SDS011;72716;48.814;2.126;2023-09-18T04:08:20;6.05;;;3.30;;
70780;SDS011;72716;48.814;2.126;2023-09-18T04:10:46;5.00;;;3.63;;
70780;SDS011;72716;48.814;2.126;2023-09-18T04:13:11;4.57;;;3.42;;
70780;SDS011;72716;48.814;2.126;2023-09-18T04:15:37;6.15;;;3.38;;
70780;SDS011;72716;48.814;2.126;2023-09-18T04:18:06;4.60;;;2.80;;
70780;SDS011;72716;48.814;2.126;2023-09-18T04:20:31;7.45;;;3.25;;
70780;SDS011;72716;48.814;2.126;2023-09-18T04:25:45;6.05;;;3.58;;
70780;SDS011;72716;48.814;2.126;2023-09-18T04:28:12;8.05;;;3.60;;
70780;SDS011;72716;48.814;2.126;2023-09-18T04:30:38;4.25;;;3.25;;
70780;SDS011;72716;48.814;2.126;2023-09-18T04:33:03;4.50;;;3.45;;
70780;SDS011;72716;48.814;2.126;2023-09-18T04:35:29;4.22;;;3.13;;
70780;SDS011;72716;48.814;2.126;2023-09-18T04:37:56;4.57;;;3.67;;
70780;SDS011;72716;48.814;2.126;2023-09-18T04:40:21;4.68;;;3.35;;
70780;SDS011;72716;48.814;2.126;2023-09-18T04:42:48;4.75;;;3.25;;
70780;SDS011;72716;48.814;2.126;2023-09-18T04:45:14;5.25;;;3.22;;
70780;SDS011;72716;48.814;2.126;2023-09-18T04:47:41;5.57;;;3.25;;
70780;SDS011;72716;48.814;2.126;2023-09-18T04:50:06;4.82;;;3.20;;
70780;SDS011;72716;48.814;2.126;2023-09-18T04:52:35;4.57;;;3.95;;
70780;SDS011;72716;48.814;2.126;2023-09-18T04:55:04;4.50;;;2.97;;
70780;SDS011;72716;48.814;2.126;2023-09-18T04:57:31;4.35;;;3.10;;
70780;SDS011;72716;48.814;2.126;2023-09-18T04:59:56;5.50;;;3.40;;
70780;SDS011;72716;48.814;2.126;2023-09-18T05:02:21;5.22;;;3.65;;
70780;SDS011;72716;48.814;2.126;2023-09-18T05:04:47;5.47;;;3.30;;
70780;SDS011;72716;48.814;2.126;2023-09-18T05:07:12;4.97;;;3.63;;
70780;SDS011;72716;48.814;2.126;2023-09-18T05:09:37;5.15;;;3.63;;
70780;SDS011;72716;48.814;2.126;2023-09-18T05:12:05;5.70;;;3.97;;
70780;SDS011;72716;48.814;2.126;2023-09-18T05:14:33;3.38;;;3.08;;
70780;SDS011;72716;48.814;2.126;2023-09-18T05:16:59;5.22;;;3.38;;
70780;SDS011;72716;48.814;2.126;2023-09-18T05:19:24;5.78;;;3.83;;
70780;SDS011;72716;48.814;2.126;2023-09-18T05:21:50;5.00;;;3.40;;
70780;SDS011;72716;48.814;2.126;2023-09-18T05:24:15;4.82;;;3.75;;
70780;SDS011;72716;48.814;2.126;2023-09-18T05:26:41;4.22;;;3.65;;
70780;SDS011;72716;48.814;2.126;2023-09-18T05:29:06;4.80;;;3.65;;
70780;SDS011;72716;48.814;2.126;2023-09-18T05:31:31;4.78;;;4.10;;
70780;SDS011;72716;48.814;2.126;2023-09-18T05:33:57;6.78;;;4.03;;
70780;SDS011;72716;48.814;2.126;2023-09-18T05:36:22;4.82;;;3.78;;
70780;SDS011;72716;48.814;2.126;2023-09-18T05:38:47;4.80;;;4.10;;
70780;SDS011;72716;48.814;2.126;2023-09-18T05:41:13;5.90;;;3.95;;
70780;SDS011;72716;48.814;2.126;2023-09-18T05:43:38;7.30;;;4.68;;
70780;SDS011;72716;48.814;2.126;2023-09-18T05:46:04;6.38;;;3.85;;
70780;SDS011;72716;48.814;2.126;2023-09-18T05:48:29;8.48;;;3.97;;
70780;SDS011;72716;48.814;2.126;2023-09-18T05:50:54;7.07;;;4.40;;
70780;SDS011;72716;48.814;2.126;2023-09-18T05:53:20;6.00;;;4.78;;
70780;SDS011;72716;48.814;2.126;2023-09-18T05:55:46;6.32;;;4.60;;
70780;SDS011;72716;48.814;2.126;2023-09-18T05:58:12;5.53;;;4.70;;
70780;SDS011;72716;48.814;2.126;2023-09-18T06:00:37;6.93;;;5.05;;
70780;SDS011;72716;48.814;2.126;2023-09-18T06:03:03;7.85;;;4.63;;
70780;SDS011;72716;48.814;2.126;2023-09-18T06:05:30;8.15;;;5.20;;
70780;SDS011;72716;48.814;2.126;2023-09-18T06:07:56;8.40;;;5.20;;
70780;SDS011;72716;48.814;2.126;2023-09-18T06:10:22;8.77;;;4.70;;
70780;SDS011;72716;48.814;2.126;2023-09-18T06:12:47;5.90;;;4.82;;
70780;SDS011;72716;48.814;2.126;2023-09-18T06:15:12;6.40;;;4.70;;
70780;SDS011;72716;48.814;2.126;2023-09-18T06:17:39;6.47;;;4.95;;
70780;SDS011;72716;48.814;2.126;2023-09-18T06:20:07;8.45;;;5.13;;
70780;SDS011;72716;48.814;2.126;2023-09-18T06:22:37;5.90;;;4.60;;
70780;SDS011;72716;48.814;2.126;2023-09-18T06:25:07;12.27;;;6.13;;
70780;SDS011;72716;48.814;2.126;2023-09-18T06:27:37;7.40;;;5.57;;
70780;SDS011;72716;48.814;2.126;2023-09-18T06:30:03;7.35;;;5.10;;
70780;SDS011;72716;48.814;2.126;2023-09-18T06:32:32;8.85;;;5.93;;
70780;SDS011;72716;48.814;2.126;2023-09-18T06:34:58;7.28;;;5.47;;
70780;SDS011;72716;48.814;2.126;2023-09-18T06:37:24;6.82;;;5.43;;
70780;SDS011;72716;48.814;2.126;2023-09-18T06:39:50;13.75;;;5.53;;
70780;SDS011;72716;48.814;2.126;2023-09-18T06:42:16;7.45;;;5.18;;
70780;SDS011;72716;48.814;2.126;2023-09-18T06:44:41;10.10;;;5.22;;
70780;SDS011;72716;48.814;2.126;2023-09-18T06:47:06;8.77;;;5.47;;
70780;SDS011;72716;48.814;2.126;2023-09-18T06:49:32;9.15;;;5.80;;
70780;SDS011;72716;48.814;2.126;2023-09-18T06:51:57;6.20;;;5.20;;
70780;SDS011;72716;48.814;2.126;2023-09-18T06:54:23;5.70;;;4.85;;
70780;SDS011;72716;48.814;2.126;2023-09-18T06:56:48;7.82;;;5.53;;
70780;SDS011;72716;48.814;2.126;2023-09-18T06:59:14;5.47;;;4.75;;
70780;SDS011;72716;48.814;2.126;2023-09-18T07:01:39;10.02;;;5.38;;
70780;SDS011;72716;48.814;2.126;2023-09-18T07:04:06;5.72;;;4.88;;
70780;SDS011;72716;48.814;2.126;2023-09-18T07:06:31;8.52;;;4.85;;
70780;SDS011;72716;48.814;2.126;2023-09-18T07:08:56;8.38;;;5.00;;
70780;SDS011;72716;48.814;2.126;2023-09-18T07:11:22;7.72;;;5.53;;
70780;SDS011;72716;48.814;2.126;2023-09-18T07:13:47;7.75;;;5.47;;
70780;SDS011;72716;48.814;2.126;2023-09-18T07:16:12;7.32;;;4.90;;
70780;SDS011;72716;48.814;2.126;2023-09-18T07:18:38;5.22;;;4.72;;
70780;SDS011;72716;48.814;2.126;2023-09-18T07:21:03;9.95;;;5.93;;
70780;SDS011;72716;48.814;2.126;2023-09-18T07:23:29;8.70;;;5.53;;
70780;SDS011;72716;48.814;2.126;2023-09-18T07:25:54;7.40;;;4.68;;
70780;SDS011;72716;48.814;2.126;2023-09-18T07:28:20;8.32;;;4.70;;
70780;SDS011;72716;48.814;2.126;2023-09-18T07:30:45;7.25;;;4.72;;
70780;SDS011;72716;48.814;2.126;2023-09-18T07:33:11;6.85;;;4.85;;
70780;SDS011;72716;48.814;2.126;2023-09-18T07:35:37;6.35;;;4.80;;
70780;SDS011;72716;48.814;2.126;2023-09-18T07:38:03;9.48;;;4.90;;
70780;SDS011;72716;48.814;2.126;2023-09-18T07:40:29;7.18;;;4.30;;
70780;SDS011;72716;48.814;2.126;2023-09-18T07:42:54;5.15;;;4.28;;
70780;SDS011;72716;48.814;2.126;2023-09-18T07:45:20;6.90;;;4.80;;
70780;SDS011;72716;48.814;2.126;2023-09-18T07:47:45;7.05;;;4.65;;
70780;SDS011;72716;48.814;2.126;2023-09-18T07:50:10;7.03;;;4.00;;
70780;SDS011;72716;48.814;2.126;2023-09-18T07:52:36;4.53;;;4.05;;
70780;SDS011;72716;48.814;2.126;2023-09-18T07:55:01;4.45;;;3.92;;
70780;SDS011;72716;48.814;2.126;2023-09-18T07:57:27;5.97;;;3.72;;
70780;SDS011;72716;48.814;2.126;2023-09-18T08:00:00;5.85;;;4.30;;
70780;SDS011;72716;48.814;2.126;2023-09-18T08:02:38;8.68;;;4.28;;
70780;SDS011;72716;48.814;2.126;2023-09-18T08:05:07;5.40;;;3.90;;
70780;SDS011;72716;48.814;2.126;2023-09-18T08:07:33;5.30;;;3.78;;
70780;SDS011;72716;48.814;2.126;2023-09-18T08:10:00;6.00;;;4.03;;
70780;SDS011;72716;48.814;2.126;2023-09-18T08:12:25;4.25;;;3.47;;
70780;SDS011;72716;48.814;2.126;2023-09-18T08:14:51;8.00;;;3.53;;
70780;SDS011;72716;48.814;2.126;2023-09-18T08:17:16;6.78;;;3.75;;
70780;SDS011;72716;48.814;2.126;2023-09-18T08:19:41;5.05;;;3.53;;
70780;SDS011;72716;48.814;2.126;2023-09-18T08:22:09;5.60;;;3.35;;
70780;SDS011;72716;48.814;2.126;2023-09-18T08:24:36;5.88;;;3.92;;
70780;SDS011;72716;48.814;2.126;2023-09-18T08:27:02;5.43;;;3.40;;
70780;SDS011;72716;48.814;2.126;2023-09-18T08:29:28;5.43;;;3.38;;
70780;SDS011;72716;48.814;2.126;2023-09-18T08:31:53;4.90;;;2.65;;
70780;SDS011;72716;48.814;2.126;2023-09-18T08:34:19;3.83;;;3.20;;
70780;SDS011;72716;48.814;2.126;2023-09-18T08:36:44;5.55;;;3.30;;
70780;SDS011;72716;48.814;2.126;2023-09-18T08:39:09;6.88;;;3.42;;
70780;SDS011;72716;48.814;2.126;2023-09-18T08:41:38;5.03;;;3.40;;
70780;SDS011;72716;48.814;2.126;2023-09-18T08:44:06;3.97;;;3.00;;
70780;SDS011;72716;48.814;2.126;2023-09-18T08:46:34;3.78;;;2.97;;
70780;SDS011;72716;48.814;2.126;2023-09-18T08:49:00;3.55;;;2.67;;
70780;SDS011;72716;48.814;2.126;2023-09-18T08:51:26;6.38;;;3.13;;
70780;SDS011;72716;48.814;2.126;2023-09-18T08:53:53;4.47;;;2.80;;
70780;SDS011;72716;48.814;2.126;2023-09-18T08:56:19;5.35;;;2.33;;
70780;SDS011;72716;48.814;2.126;2023-09-18T08:58:46;2.88;;;2.40;;
70780;SDS011;72716;48.814;2.126;2023-09-18T09:01:12;3.75;;;2.65;;
70780;SDS011;72716;48.814;2.126;2023-09-18T09:03:39;4.50;;;3.13;;
70780;SDS011;72716;48.814;2.126;2023-09-18T09:06:08;4.05;;;2.60;;
70780;SDS011;72716;48.814;2.126;2023-09-18T09:08:35;3.75;;;2.60;;
70780;SDS011;72716;48.814;2.126;2023-09-18T09:11:01;3.53;;;2.58;;
70780;SDS011;72716;48.814;2.126;2023-09-18T09:13:27;5.10;;;2.40;;
70780;SDS011;72716;48.814;2.126;2023-09-18T09:15:54;3.65;;;2.30;;
70780;SDS011;72716;48.814;2.126;2023-09-18T09:18:22;2.60;;;2.10;;
70780;SDS011;72716;48.814;2.126;2023-09-18T09:20:52;3.13;;;2.30;;
70780;SDS011;72716;48.814;2.126;2023-09-18T09:23:26;3.65;;;2.25;;
70780;SDS011;72716;48.814;2.126;2023-09-18T09:25:53;4.22;;;2.85;;
70780;SDS011;72716;48.814;2.126;2023-09-18T09:28:29;2.88;;;2.20;;
70780;SDS011;72716;48.814;2.126;2023-09-18T09:31:02;4.72;;;2.30;;
70780;SDS011;72716;48.814;2.126;2023-09-18T09:33:27;2.65;;;2.33;;
70780;SDS011;72716;48.814;2.126;2023-09-18T09:35:54;3.15;;;2.50;;
70780;SDS011;72716;48.814;2.126;2023-09-18T09:38:22;2.60;;;2.20;;
70780;SDS011;72716;48.814;2.126;2023-09-18T09:40:53;2.40;;;2.20;;
70780;SDS011;72716;48.814;2.126;2023-09-18T09:43:19;4.25;;;2.00;;
70780;SDS011;72716;48.814;2.126;2023-09-18T09:45:44;2.95;;;2.00;;
70780;SDS011;72716;48.814;2.126;2023-09-18T09:48:11;3.78;;;2.20;;
70780;SDS011;72716;48.814;2.126;2023-09-18T09:50:46;3.90;;;2.33;;
70780;SDS011;72716;48.814;2.126;2023-09-18T09:53:13;4.85;;;1.90;;
70780;SDS011;72716;48.814;2.126;2023-09-18T09:55:38;2.85;;;1.73;;
70780;SDS011;72716;48.814;2.126;2023-09-18T09:58:05;4.00;;;2.20;;
70780;SDS011;72716;48.814;2.126;2023-09-18T10:00:33;2.67;;;1.85;;
70780;SDS011;72716;48.814;2.126;2023-09-18T10:03:08;3.42;;;1.90;;
70780;SDS011;72716;48.814;2.126;2023-09-18T10:05:36;3.80;;;2.30;;
70780;SDS011;72716;48.814;2.126;2023-09-18T10:08:21;3.00;;;1.77;;
70780;SDS011;72716;48.814;2.126;2023-09-18T10:10:52;1.73;;;1.50;;
70780;SDS011;72716;48.814;2.126;2023-09-18T10:13:20;3.30;;;1.63;;
70780;SDS011;72716;48.814;2.126;2023-09-18T10:15:52;2.15;;;1.70;;
70780;SDS011;72716;48.814;2.126;2023-09-18T10:26:58;2.78;;;2.03;;
70780;SDS011;72716;48.814;2.126;2023-09-18T10:29:25;4.20;;;2.00;;
70780;SDS011;72716;48.814;2.126;2023-09-18T10:31:53;2.67;;;1.63;;
70780;SDS011;72716;48.814;2.126;2023-09-18T10:34:19;2.83;;;1.80;;
70780;SDS011;72716;48.814;2.126;2023-09-18T10:36:50;2.00;;;1.52;;
70780;SDS011;72716;48.814;2.126;2023-09-18T10:39:17;2.60;;;1.70;;
70780;SDS011;72716;48.814;2.126;2023-09-18T10:41:52;3.13;;;1.60;;
70780;SDS011;72716;48.814;2.126;2023-09-18T10:44:19;2.00;;;1.45;;
70780;SDS011;72716;48.814;2.126;2023-09-18T10:46:45;2.17;;;1.48;;
70780;SDS011;72716;48.814;2.126;2023-09-18T10:49:12;2.63;;;1.33;;
70780;SDS011;72716;48.814;2.126;2023-09-18T10:51:39;3.35;;;1.60;;
70780;SDS011;72716;48.814;2.126;2023-09-18T10:54:10;3.15;;;1.40;;
70780;SDS011;72716;48.814;2.126;2023-09-18T10:56:39;2.45;;;1.65;;
70780;SDS011;72716;48.814;2.126;2023-09-18T10:59:06;4.55;;;1.50;;
70780;SDS011;72716;48.814;2.126;2023-09-18T11:01:33;3.53;;;1.60;;
70780;SDS011;72716;48.814;2.126;2023-09-18T11:04:01;1.95;;;1.50;;
70780;SDS011;72716;48.814;2.126;2023-09-18T11:06:29;2.88;;;1.58;;
70780;SDS011;72716;48.814;2.126;2023-09-18T11:09:02;2.35;;;1.58;;
70780;SDS011;72716;48.814;2.126;2023-09-18T11:11:31;1.58;;;1.30;;
70780;SDS011;72716;48.814;2.126;2023-09-18T11:14:00;4.30;;;1.70;;
70780;SDS011;72716;48.814;2.126;2023-09-18T11:18:52;2.67;;;1.50;;
70780;SDS011;72716;48.814;2.126;2023-09-18T11:21:23;1.83;;;1.20;;
70780;SDS011;72716;48.814;2.126;2023-09-18T11:24:02;2.22;;;1.10;;
70780;SDS011;72716;48.814;2.126;2023-09-18T11:26:29;2.40;;;1.42;;
70780;SDS011;72716;48.814;2.126;2023-09-18T11:28:59;1.92;;;1.42;;
70780;SDS011;72716;48.814;2.126;2023-09-18T11:37:19;1.48;;;1.20;;
70780;SDS011;72716;48.814;2.126;2023-09-18T11:39:48;1.40;;;1.30;;
70780;SDS011;72716;48.814;2.126;2023-09-18T11:42:18;1.40;;;1.30;;
70780;SDS011;72716;48.814;2.126;2023-09-18T11:44:47;1.42;;;1.23;;
70780;SDS011;72716;48.814;2.126;2023-09-18T11:47:17;2.63;;;1.40;;
70780;SDS011;72716;48.814;2.126;2023-09-18T11:49:55;1.98;;;1.67;;
70780;SDS011;72716;48.814;2.126;2023-09-18T11:52:26;2.40;;;1.15;;
70780;SDS011;72716;48.814;2.126;2023-09-18T11:54:53;1.27;;;1.17;;
70780;SDS011;72716;48.814;2.126;2023-09-18T11:57:24;2.13;;;1.50;;
70780;SDS011;72716;48.814;2.126;2023-09-18T11:59:50;2.22;;;1.33;;
70780;SDS011;72716;48.814;2.126;2023-09-18T12:02:25;2.38;;;1.58;;
70780;SDS011;72716;48.814;2.126;2023-09-18T12:04:53;3.22;;;1.30;;
70780;SDS011;72716;48.814;2.126;2023-09-18T12:07:21;1.40;;;1.30;;
70780;SDS011;72716;48.814;2.126;2023-09-18T12:09:47;1.50;;;1.35;;
70780;SDS011;72716;48.814;2.126;2023-09-18T12:12:13;2.38;;;1.20;;
70780;SDS011;72716;48.814;2.126;2023-09-18T12:14:41;2.05;;;1.40;;
70780;SDS011;72716;48.814;2.126;2023-09-18T12:17:07;1.25;;;1.00;;
70780;SDS011;72716;48.814;2.126;2023-09-18T12:19:33;2.85;;;1.30;;
70780;SDS011;72716;48.814;2.126;2023-09-18T12:22:00;1.17;;;1.08;;
70780;SDS011;72716;48.814;2.126;2023-09-18T12:24:26;2.15;;;1.38;;
70780;SDS011;72716;48.814;2.126;2023-09-18T12:26:52;1.83;;;1.38;;
70780;SDS011;72716;48.814;2.126;2023-09-18T12:29:19;2.00;;;1.00;;
70780;SDS011;72716;48.814;2.126;2023-09-18T12:31:45;1.80;;;1.50;;
70780;SDS011;72716;48.814;2.126;2023-09-18T12:34:17;2.03;;;1.35;;
70780;SDS011;72716;48.814;2.126;2023-09-18T12:36:44;1.30;;;1.20;;
70780;SDS011;72716;48.814;2.126;2023-09-18T12:39:12;1.30;;;1.20;;
70780;SDS011;72716;48.814;2.126;2023-09-18T12:41:41;1.75;;;1.40;;
70780;SDS011;72716;48.814;2.126;2023-09-18T12:44:11;1.30;;;1.08;;
70780;SDS011;72716;48.814;2.126;2023-09-18T12:46:37;1.55;;;1.02;;
70780;SDS011;72716;48.814;2.126;2023-09-18T12:49:22;1.33;;;1.13;;
70780;SDS011;72716;48.814;2.126;2023-09-18T12:52:00;1.25;;;0.90;;
70780;SDS011;72716;48.814;2.126;2023-09-18T12:54:36;1.85;;;1.02;;
70780;SDS011;72716;48.814;2.126;2023-09-18T12:57:04;1.42;;;0.90;;
70780;SDS011;72716;48.814;2.126;2023-09-18T12:59:31;2.38;;;1.20;;
70780;SDS011;72716;48.814;2.126;2023-09-18T13:01:58;4.50;;;1.10;;
70780;SDS011;72716;48.814;2.126;2023-09-18T13:04:24;1.55;;;1.00;;
70780;SDS011;72716;48.814;2.126;2023-09-18T13:07:12;2.35;;;1.20;;
70780;SDS011;72716;48.814;2.126;2023-09-18T13:09:39;1.02;;;0.80;;
70780;SDS011;72716;48.814;2.126;2023-09-18T13:12:05;1.38;;;0.85;;
70780;SDS011;72716;48.814;2.126;2023-09-18T13:15:23;1.60;;;1.20;;
70780;SDS011;72716;48.814;2.126;2023-09-18T13:20:13;1.30;;;0.63;;
70780;SDS011;72716;48.814;2.126;2023-09-18T13:22:41;2.97;;;0.90;;
70780;SDS011;72716;48.814;2.126;2023-09-18T13:25:10;0.75;;;0.75;;
70780;SDS011;72716;48.814;2.126;2023-09-18T13:27:38;1.15;;;0.90;;
70780;SDS011;72716;48.814;2.126;2023-09-18T13:30:05;1.88;;;1.05;;
70780;SDS011;72716;48.814;2.126;2023-09-18T13:32:38;6.05;;;1.25;;
70780;SDS011;72716;48.814;2.126;2023-09-18T13:35:03;1.63;;;1.20;;
70780;SDS011;72716;48.814;2.126;2023-09-18T13:37:30;1.20;;;0.93;;
70780;SDS011;72716;48.814;2.126;2023-09-18T13:39:57;1.40;;;1.00;;
70780;SDS011;72716;48.814;2.126;2023-09-18T13:42:22;1.60;;;0.90;;
70780;SDS011;72716;48.814;2.126;2023-09-18T13:44:47;1.27;;;1.00;;
70780;SDS011;72716;48.814;2.126;2023-09-18T13:47:14;1.08;;;0.60;;
70780;SDS011;72716;48.814;2.126;2023-09-18T13:49:40;2.15;;;0.98;;
70780;SDS011;72716;48.814;2.126;2023-09-18T13:52:05;0.83;;;0.80;;
70780;SDS011;72716;48.814;2.126;2023-09-18T13:54:31;0.70;;;0.70;;
70780;SDS011;72716;48.814;2.126;2023-09-18T13:56:56;1.40;;;0.90;;
70780;SDS011;72716;48.814;2.126;2023-09-18T13:59:21;1.00;;;0.90;;
70780;SDS011;72716;48.814;2.126;2023-09-18T14:01:47;1.35;;;0.98;;
70780;SDS011;72716;48.814;2.126;2023-09-18T14:04:12;0.95;;;0.80;;
70780;SDS011;72716;48.814;2.126;2023-09-18T14:06:38;0.80;;;0.80;;
70780;SDS011;72716;48.814;2.126;2023-09-18T14:09:03;1.30;;;0.90;;
70780;SDS011;72716;48.814;2.126;2023-09-18T14:11:30;1.35;;;0.70;;
70780;SDS011;72716;48.814;2.126;2023-09-18T14:13:56;1.33;;;0.73;;
70780;SDS011;72716;48.814;2.126;2023-09-18T14:16:21;2.97;;;0.90;;
70780;SDS011;72716;48.814;2.126;2023-09-18T14:18:47;1.67;;;1.15;;
70780;SDS011;72716;48.814;2.126;2023-09-18T14:21:12;1.38;;;0.90;;
70780;SDS011;72716;48.814;2.126;2023-09-18T14:23:37;1.65;;;1.10;;
70780;SDS011;72716;48.814;2.126;2023-09-18T14:26:03;1.15;;;1.00;;
70780;SDS011;72716;48.814;2.126;2023-09-18T14:28:28;2.05;;;0.80;;
70780;SDS011;72716;48.814;2.126;2023-09-18T14:30:54;1.63;;;0.82;;
70780;SDS011;72716;48.814;2.126;2023-09-18T14:33:19;1.37;;;1.00;;
70780;SDS011;72716;48.814;2.126;2023-09-18T14:35:44;1.00;;;0.90;;
70780;SDS011;72716;48.814;2.126;2023-09-18T14:38:10;1.52;;;1.20;;
70780;SDS011;72716;48.814;2.126;2023-09-18T14:40:35;3.40;;;1.20;;
70780;SDS011;72716;48.814;2.126;2023-09-18T14:43:00;1.50;;;1.10;;
70780;SDS011;72716;48.814;2.126;2023-09-18T14:45:26;1.75;;;0.80;;
70780;SDS011;72716;48.814;2.126;2023-09-18T14:47:51;1.25;;;1.00;;
70780;SDS011;72716;48.814;2.126;2023-09-18T14:50:17;1.33;;;1.00;;
70780;SDS011;72716;48.814;2.126;2023-09-18T14:52:42;1.35;;;1.02;;
70780;SDS011;72716;48.814;2.126;2023-09-18T14:55:08;1.23;;;1.10;;
70780;SDS011;72716;48.814;2.126;2023-09-18T14:57:33;2.75;;;1.13;;
70780;SDS011;72716;48.814;2.126;2023-09-18T14:59:58;1.45;;;1.02;;
70780;SDS011;72716;48.814;2.126;2023-09-18T15:02:24;1.52;;;1.00;;
70780;SDS011;72716;48.814;2.126;2023-09-18T15:04:54;1.50;;;1.02;;
70780;SDS011;72716;48.814;2.126;2023-09-18T15:07:20;1.73;;;0.98;;
70780;SDS011;72716;48.814;2.126;2023-09-18T15:09:45;1.23;;;1.13;;
70780;SDS011;72716;48.814;2.126;2023-09-18T15:12:10;2.03;;;1.10;;